Terminal Aerodrome Forecast
Issued by NWS

Home | Current Version | Previous Version | Text Only | Print | Product List | Glossary On
Versions: 1 2 3 4 5 6 7 8 9 10 11 12 13 14 15 16 17 18 19 20 21 22 23 24 25
000
FTUS46 KPDT 062320
TAFALW
TAF
KALW 062320Z 0700/0724 20008G15KT P6SM SCT060 BKN250
     FM070700 20017G23KT P6SM BKN050 OVC100
     FM071600 22019G26KT P6SM OVC050=

USA.gov is the U.S. government's official web portal to all federal, state and local government web resources and services.